Terminal Aerodrome Forecast
Issued by NWS Lubbock, TX

Home | Current Version | Previous Version | Text Only | Print | Product List | Glossary On
Versions: 1 2 3 4 5 6 7 8 9 10 11 12 13 14 15
415
FTUS44 KLUB 220823 AAA
TAFLBB
TAF AMD
KLBB 220823Z 2208/2306 32025G35KT P6SM BKN050
      TEMPO 2208/2209 -SHRA BKN029
     FM221900 31015G25KT P6SM BKN050
     FM230000 35005KT P6SM FEW100=

USA.gov is the U.S. government's official web portal to all federal, state and local government web resources and services.